Houlton, ME

1:58 PM EST on November 26, 2014 (GMT -0500)
Ludlow Road | Change Station
CLOSE
Current Station
Personal Weather Station
Location: Ludlow, ME
Elevation: 689 ft
Nearby Weather Stations
Active Advisory: Winter Storm Warning Active Notice: Record Report

Elev 689 ft 46.15 °N, 67.95 °W | Updated 1 minute ago

Partly Cloudy
Partly Cloudy
36.5 °F
Feels Like 33 °F
N
3.8
Wind Variable Wind from West
Gusts 3.8 mph

Today
High -- | Low -- °F
--% Chance of Precip.
Yesterday
High -- | Low -- °F
Precip. -- in
6:47 AM 3:50 PM
Waxing Crescent, 22% visible
Pressure 30.15 in
Visibility 10.0 miles
Clouds Few 12000 ft
Windchill 33 °F
Dew Point 13 °F
Humidity 38%
Rainfall 0.00 in
Snow Depth Not available.
UV 1 out of 12
Pollen .10 out of 12
Air Quality Not available.
Flu Activity Not available.
METAR KHUL 261753Z AUTO 35006KT 10SM FEW120 03/M06 A3014 RMK AO2 PRESFR SLP210 T00281056 10033 20017 58023

More Conditions Fewer Conditions

Pressure 30.15 in
Visibility 10.0 miles
Clouds Few 12000 ft
Windchill 33 °F
Dew Point 13 °F
Humidity 38%
Rainfall 0.00 in
Snow Depth Not available.
UV 1 out of 12
Pollen .10 out of 12
Air Quality Not available.
Flu Activity Not available.
METAR KHUL 261753Z AUTO 35006KT 10SM FEW120 03/M06 A3014 RMK AO2 PRESFR SLP210 T00281056 10033 20017 58023

More Conditions Fewer Conditions

10-Day Weather Forecast

Almanac

Astronomy

Nov. 26, 2014 Rise Set
Actual Time
Civil Twilight
Nautical Twilight
Astronomical Twilight
Moon
Length of Visible Light
Length of Day
Tomorrow will be .
, % of the Moon is Illuminated

Today's Extremes

State Highs State Lows

Community

WunderPhotos

Upload Photos

1,773,827 photos uploaded!

WunderBlogs® & News

Nearby

Air Quality

  Air Quality AQ Index Pollutant
Not available.

Snow Depth

Station Depth Elevation

Earthquake Activity

City Distance Mag. Time & Date
Minimum magnitude displayed is 2.5.

Coastal Water Temperatures

Place Temperature

Nearby Weather Stations